TimeCDT,TemperatureF,Dew PointF,Humidity,Sea Level PressureIn,VisibilityMPH,Wind Direction,Wind SpeedMPH,Gust SpeedMPH,PrecipitationIn,Events,Conditions,WindDirDegrees,DateUTC
12:11 AM,33.8,30.2,87,30.33,10.0,SW,6.9,-,N/A,,Overcast,230,2012-10-27 05:11:00
12:31 AM,33.8,30.2,87,30.33,10.0,SW,6.9,-,N/A,,Overcast,230,2012-10-27 05:31:00
12:51 AM,33.8,30.2,87,30.33,10.0,SW,5.8,-,N/A,,Overcast,230,2012-10-27 05:51:00
1:11 AM,33.8,30.2,87,30.33,10.0,WSW,5.8,-,N/A,,Overcast,240,2012-10-27 06:11:00
1:31 AM,33.8,30.2,87,30.33,10.0,WSW,4.6,-,N/A,,Overcast,240,2012-10-27 06:31:00
1:51 AM,33.8,30.2,87,30.32,10.0,SW,5.8,-,N/A,,Overcast,230,2012-10-27 06:51:00
2:11 AM,32.0,28.4,87,30.32,10.0,WSW,5.8,-,N/A,,Overcast,240,2012-10-27 07:11:00
2:31 AM,32.0,28.4,87,30.32,10.0,SW,5.8,-,N/A,,Overcast,230,2012-10-27 07:31:00
2:51 AM,32.0,28.4,87,30.31,10.0,SW,5.8,-,N/A,,Overcast,230,2012-10-27 07:51:00
3:31 AM,32.0,28.4,87,30.31,10.0,SW,6.9,-,N/A,,Scattered Clouds,230,2012-10-27 08:31:00
3:51 AM,30.2,26.6,86,30.31,10.0,WSW,5.8,-,N/A,,Clear,240,2012-10-27 08:51:00
4:11 AM,30.2,26.6,86,30.31,10.0,WSW,5.8,-,N/A,,Clear,250,2012-10-27 09:11:00
4:31 AM,30.2,26.6,86,30.31,10.0,WSW,5.8,-,N/A,,Clear,250,2012-10-27 09:31:00
4:51 AM,30.2,26.6,86,30.31,10.0,WSW,4.6,-,N/A,,Clear,240,2012-10-27 09:51:00
5:11 AM,30.2,26.6,86,30.31,10.0,SW,3.5,-,N/A,,Clear,230,2012-10-27 10:11:00
5:31 AM,30.2,26.6,86,30.32,10.0,West,4.6,-,N/A,,Clear,260,2012-10-27 10:31:00
5:51 AM,28.4,24.8,86,30.32,10.0,SW,3.5,-,N/A,,Clear,230,2012-10-27 10:51:00
6:11 AM,28.4,24.8,86,30.32,10.0,SW,3.5,-,N/A,,Clear,220,2012-10-27 11:11:00
6:51 AM,30.2,26.6,86,30.33,10.0,SW,5.8,-,N/A,,Clear,230,2012-10-27 11:51:00
7:11 AM,28.4,24.8,86,30.33,10.0,SW,4.6,-,N/A,,Clear,230,2012-10-27 12:11:00
7:31 AM,28.4,24.8,86,30.33,10.0,Calm,Calm,-,N/A,,Clear,0,2012-10-27 12:31:00
7:51 AM,28.4,24.8,86,30.33,10.0,SSW,3.5,-,N/A,,Clear,210,2012-10-27 12:51:00
8:11 AM,28.4,24.8,86,30.33,10.0,SSW,4.6,-,N/A,,Clear,210,2012-10-27 13:11:00
8:31 AM,28.4,24.8,86,30.34,10.0,SSW,4.6,-,N/A,,Clear,200,2012-10-27 13:31:00
9:11 AM,30.2,26.6,86,30.34,10.0,SSW,3.5,-,N/A,,Clear,210,2012-10-27 14:11:00
9:30 AM,30.2,26.6,86,30.35,10.0,SW,4.6,-,N/A,,Clear,230,2012-10-27 14:30:00
10:30 AM,33.8,30.2,87,30.35,10.0,SW,5.8,-,N/A,,Clear,230,2012-10-27 15:30:00
10:51 AM,33.8,28.4,81,30.34,10.0,WSW,5.8,-,N/A,,Clear,240,2012-10-27 15:51:00
11:10 AM,33.8,28.4,81,30.35,10.0,WSW,5.8,-,N/A,,Clear,240,2012-10-27 16:10:00
11:30 AM,35.6,28.4,75,30.35,10.0,WSW,6.9,-,N/A,,Clear,240,2012-10-27 16:30:00
11:51 AM,35.6,28.4,75,30.34,10.0,SW,5.8,-,N/A,,Clear,230,2012-10-27 16:51:00
12:11 PM,39.2,30.2,70,30.34,10.0,WSW,6.9,-,N/A,,Clear,250,2012-10-27 17:11:00
12:30 PM,39.2,28.4,65,30.33,10.0,West,6.9,-,N/A,,Clear,260,2012-10-27 17:30:00
12:51 PM,39.2,28.4,65,30.32,10.0,West,8.1,-,N/A,,Clear,260,2012-10-27 17:51:00
1:11 PM,39.2,26.6,61,30.32,10.0,WSW,8.1,-,N/A,,Clear,250,2012-10-27 18:11:00
1:31 PM,39.2,26.6,61,30.31,10.0,WSW,8.1,-,N/A,,Scattered Clouds,240,2012-10-27 18:31:00
1:51 PM,41.0,26.6,57,30.31,10.0,SW,6.9,-,N/A,,Mostly Cloudy,230,2012-10-27 18:51:00
2:11 PM,41.0,23.0,49,30.30,10.0,SSW,8.1,-,N/A,,Overcast,200,2012-10-27 19:11:00
2:31 PM,41.0,24.8,53,30.29,10.0,SSW,8.1,-,N/A,,Overcast,210,2012-10-27 19:31:00
2:51 PM,41.0,24.8,53,30.28,10.0,SSW,6.9,-,N/A,,Overcast,210,2012-10-27 19:51:00
3:11 PM,41.0,23.0,49,30.28,10.0,SW,3.5,-,N/A,,Scattered Clouds,230,2012-10-27 20:11:00
3:30 PM,41.0,23.0,49,30.27,10.0,South,6.9,-,N/A,,Scattered Clouds,190,2012-10-27 20:30:00
3:51 PM,41.0,24.8,53,30.26,10.0,South,6.9,-,N/A,,Scattered Clouds,170,2012-10-27 20:51:00
4:11 PM,41.0,23.0,49,30.26,10.0,SSW,5.8,-,N/A,,Scattered Clouds,200,2012-10-27 21:11:00
4:30 PM,41.0,23.0,49,30.26,10.0,South,5.8,-,N/A,,Clear,190,2012-10-27 21:30:00
4:51 PM,39.2,23.0,52,30.26,10.0,South,5.8,-,N/A,,Clear,180,2012-10-27 21:51:00
5:11 PM,39.2,23.0,52,30.26,10.0,South,4.6,-,N/A,,Clear,180,2012-10-27 22:11:00
5:31 PM,39.2,24.8,56,30.26,10.0,South,6.9,-,N/A,,Clear,190,2012-10-27 22:31:00
5:51 PM,37.4,26.6,65,30.26,10.0,SSW,6.9,-,N/A,,Clear,200,2012-10-27 22:51:00
6:11 PM,35.6,26.6,70,30.27,10.0,SSW,5.8,-,N/A,,Clear,200,2012-10-27 23:11:00
6:31 PM,35.6,28.4,75,30.28,7.0,South,3.5,-,N/A,,Clear,180,2012-10-27 23:31:00
6:51 PM,35.6,26.6,70,30.28,10.0,South,4.6,-,N/A,,Mostly Cloudy,170,2012-10-27 23:51:00
7:11 PM,33.8,26.6,75,30.28,10.0,SSE,3.5,-,N/A,,Scattered Clouds,160,2012-10-28 00:11:00
7:31 PM,33.8,26.6,75,30.28,10.0,SSE,3.5,-,N/A,,Mostly Cloudy,150,2012-10-28 00:31:00
7:51 PM,33.8,26.6,75,30.29,10.0,SE,3.5,-,N/A,,Overcast,140,2012-10-28 00:51:00
8:11 PM,33.8,28.4,81,30.29,10.0,SE,4.6,-,N/A,,Overcast,140,2012-10-28 01:11:00
8:31 PM,33.8,28.4,81,30.30,10.0,SSE,3.5,-,N/A,,Mostly Cloudy,160,2012-10-28 01:31:00
8:51 PM,33.8,28.4,81,30.30,10.0,SSE,4.6,-,N/A,,Scattered Clouds,150,2012-10-28 01:51:00
9:11 PM,33.8,26.6,75,30.30,10.0,SE,5.8,-,N/A,,Mostly Cloudy,140,2012-10-28 02:11:00
9:31 PM,33.8,26.6,75,30.29,10.0,Calm,Calm,-,N/A,,Scattered Clouds,0,2012-10-28 02:31:00
9:51 PM,33.8,28.4,81,30.29,10.0,SE,4.6,-,N/A,,Clear,140,2012-10-28 02:51:00
10:30 PM,33.8,28.4,81,30.29,10.0,SE,6.9,-,N/A,,Clear,140,2012-10-28 03:30:00
10:51 PM,33.8,28.4,81,30.29,10.0,SE,5.8,-,N/A,,Clear,140,2012-10-28 03:51:00
11:11 PM,32.0,26.6,80,30.29,10.0,SE,4.6,-,N/A,,Clear,130,2012-10-28 04:11:00
11:50 PM,32.0,26.6,80,30.29,10.0,SSE,5.8,-,N/A,,Scattered Clouds,150,2012-10-28 04:50:00